Terminal Aerodrome Forecast
Issued by NWS

Home | Current Version | Previous Version | Graphics & Text | Print | Product List | Glossary On
Versions: 1 2 3 4 5 6 7 8 9 10 11 12 13 14 15 16 17 18
000
FTUS43 KGRB 162300
TAFCWA
TAF
KCWA 162335Z 1700/1724 25004KT P6SM SKC
     FM171500 27008KT P6SM SCT080
     FM172300 36005KT P6SM SCT070 SCT120
      AMD LTD TO CLD VIS AND WIND 1703/1711=

USA.gov is the U.S. government's official web portal to all federal, state and local government web resources and services.